<?xml version="1.0" encoding="UTF-8" standalone="no" ?>
<gpx xmlns="http://www.topografix.com/GPX/1/1" xmlns:xsi="http://www.w3.org/2001/XMLSchema-instance" xsi:schemaLocation="http://www.topografix.com/GPX/1/1 http://www.topografix.com/GPX/1/1/gpx.xsd" version="1.1" creator="VisuGPX - https://www.visugpx.com">
  <metadata>
    <name>08: Les Sarrades - vallee de la Verenne</name>
    <desc><![CDATA[08: Les Sarrades - vallee de la Verenne]]></desc>
  </metadata>
  <wpt lat="43.83631" lon="3.12279">
    <ele>520</ele>
    <name><![CDATA[Accueil PdC Centre]]></name>
  </wpt>
  <wpt lat="43.83694" lon="3.12356">
    <ele>530.1</ele>
    <name><![CDATA[PCA]]></name>
  </wpt>
  <wpt lat="43.83798" lon="3.12203">
    <ele>575</ele>
    <name><![CDATA[SRE]]></name>
  </wpt>
  <wpt lat="43.83915" lon="3.11867">
    <ele>635.1</ele>
    <name><![CDATA[SRD]]></name>
  </wpt>
  <wpt lat="43.83989" lon="3.11584">
    <ele>660.1</ele>
    <name><![CDATA[SRC]]></name>
  </wpt>
  <wpt lat="43.84195" lon="3.11057">
    <ele>685.1</ele>
    <name><![CDATA[SRB]]></name>
  </wpt>
  <wpt lat="43.84284" lon="3.10778">
    <ele>694.9</ele>
    <name><![CDATA[SRA]]></name>
  </wpt>
  <wpt lat="43.84675" lon="3.10607">
    <ele>685.1</ele>
    <name><![CDATA[BPB]]></name>
  </wpt>
  <wpt lat="43.84724" lon="3.10643">
    <ele>685.1</ele>
    <name><![CDATA[BPA]]></name>
  </wpt>
  <wpt lat="43.84778" lon="3.10642">
    <ele>690.1</ele>
    <name><![CDATA[BPF]]></name>
  </wpt>
  <wpt lat="43.84607" lon="3.10366">
    <ele>690.1</ele>
    <name><![CDATA[PFB]]></name>
  </wpt>
  <wpt lat="43.84424" lon="3.10006">
    <ele>669.9</ele>
    <name><![CDATA[VVA]]></name>
  </wpt>
  <wpt lat="43.8456" lon="3.10048">
    <ele>644.9</ele>
    <name><![CDATA[VVB]]></name>
  </wpt>
  <wpt lat="43.84604" lon="3.09852">
    <ele>630</ele>
    <name><![CDATA[VVC]]></name>
  </wpt>
  <wpt lat="43.84504" lon="3.09697">
    <ele>610.1</ele>
    <name><![CDATA[VVD]]></name>
  </wpt>
  <wpt lat="43.84553" lon="3.09358">
    <ele>580</ele>
    <name><![CDATA[VRC]]></name>
  </wpt>
  <wpt lat="43.8444" lon="3.0968">
    <ele>560.1</ele>
    <name><![CDATA[VRB]]></name>
  </wpt>
  <wpt lat="43.84143" lon="3.10122">
    <ele>555</ele>
    <name><![CDATA[VRA]]></name>
  </wpt>
  <wpt lat="43.84037" lon="3.10487">
    <ele>550</ele>
    <name><![CDATA[MDF]]></name>
  </wpt>
  <wpt lat="43.83852" lon="3.10886">
    <ele>545</ele>
    <name><![CDATA[SBA]]></name>
  </wpt>
  <wpt lat="43.83657" lon="3.11798">
    <ele>530.1</ele>
    <name><![CDATA[PCD]]></name>
  </wpt>
  <trk>
    <name><![CDATA[RoTr 08 PdC]]></name>
    <trkseg>
      <trkpt lat="43.83696" lon="3.12353">
        <ele>527</ele>
        <time>2010-01-01T00:00:00Z</time>
      </trkpt>
      <trkpt lat="43.83698" lon="3.12334">
        <ele>526</ele>
        <time>2010-01-01T00:00:22Z</time>
      </trkpt>
      <trkpt lat="43.8373" lon="3.12282">
        <ele>537</ele>
        <time>2010-01-01T00:01:42Z</time>
      </trkpt>
      <trkpt lat="43.8376" lon="3.12249">
        <ele>548</ele>
        <time>2010-01-01T00:02:44Z</time>
      </trkpt>
      <trkpt lat="43.83776" lon="3.12237">
        <ele>549</ele>
        <time>2010-01-01T00:03:14Z</time>
      </trkpt>
      <trkpt lat="43.83787" lon="3.12237">
        <ele>550</ele>
        <time>2010-01-01T00:03:33Z</time>
      </trkpt>
      <trkpt lat="43.83788" lon="3.12218">
        <ele>552</ele>
        <time>2010-01-01T00:03:56Z</time>
      </trkpt>
      <trkpt lat="43.83795" lon="3.12194">
        <ele>555</ele>
        <time>2010-01-01T00:04:27Z</time>
      </trkpt>
      <trkpt lat="43.83797" lon="3.12192">
        <ele>556</ele>
        <time>2010-01-01T00:04:30Z</time>
      </trkpt>
      <trkpt lat="43.83809" lon="3.12175">
        <ele>560</ele>
        <time>2010-01-01T00:04:58Z</time>
      </trkpt>
      <trkpt lat="43.83822" lon="3.12183">
        <ele>563</ele>
        <time>2010-01-01T00:05:22Z</time>
      </trkpt>
      <trkpt lat="43.83848" lon="3.12126">
        <ele>568</ele>
        <time>2010-01-01T00:06:40Z</time>
      </trkpt>
      <trkpt lat="43.83893" lon="3.11997">
        <ele>585</ele>
        <time>2010-01-01T00:09:29Z</time>
      </trkpt>
      <trkpt lat="43.83915" lon="3.11871">
        <ele>618</ele>
        <time>2010-01-01T00:12:03Z</time>
      </trkpt>
      <trkpt lat="43.83916" lon="3.11868">
        <ele>619</ele>
        <time>2010-01-01T00:12:07Z</time>
      </trkpt>
      <trkpt lat="43.83936" lon="3.1178">
        <ele>629</ele>
        <time>2010-01-01T00:13:56Z</time>
      </trkpt>
      <trkpt lat="43.83952" lon="3.11685">
        <ele>641</ele>
        <time>2010-01-01T00:15:50Z</time>
      </trkpt>
      <trkpt lat="43.83968" lon="3.11643">
        <ele>648</ele>
        <time>2010-01-01T00:16:47Z</time>
      </trkpt>
      <trkpt lat="43.8397" lon="3.1162">
        <ele>651</ele>
        <time>2010-01-01T00:17:14Z</time>
      </trkpt>
      <trkpt lat="43.83984" lon="3.11599">
        <ele>656</ele>
        <time>2010-01-01T00:17:47Z</time>
      </trkpt>
      <trkpt lat="43.83987" lon="3.1159">
        <ele>657</ele>
        <time>2010-01-01T00:17:59Z</time>
      </trkpt>
      <trkpt lat="43.83988" lon="3.11588">
        <ele>658</ele>
        <time>2010-01-01T00:18:02Z</time>
      </trkpt>
      <trkpt lat="43.8399" lon="3.11567">
        <ele>659</ele>
        <time>2010-01-01T00:18:26Z</time>
      </trkpt>
      <trkpt lat="43.84013" lon="3.11507">
        <ele>664</ele>
        <time>2010-01-01T00:19:48Z</time>
      </trkpt>
      <trkpt lat="43.84032" lon="3.11484">
        <ele>664</ele>
        <time>2010-01-01T00:20:28Z</time>
      </trkpt>
      <trkpt lat="43.84031" lon="3.11461">
        <ele>666</ele>
        <time>2010-01-01T00:20:55Z</time>
      </trkpt>
      <trkpt lat="43.84046" lon="3.11371">
        <ele>671</ele>
        <time>2010-01-01T00:22:44Z</time>
      </trkpt>
      <trkpt lat="43.84099" lon="3.1124">
        <ele>677</ele>
        <time>2010-01-01T00:25:41Z</time>
      </trkpt>
      <trkpt lat="43.84123" lon="3.11198">
        <ele>678</ele>
        <time>2010-01-01T00:26:45Z</time>
      </trkpt>
      <trkpt lat="43.84144" lon="3.11141">
        <ele>680</ele>
        <time>2010-01-01T00:28:00Z</time>
      </trkpt>
      <trkpt lat="43.8417" lon="3.11094">
        <ele>683</ele>
        <time>2010-01-01T00:29:10Z</time>
      </trkpt>
      <trkpt lat="43.84195" lon="3.1106">
        <ele>683</ele>
        <time>2010-01-01T00:30:07Z</time>
      </trkpt>
      <trkpt lat="43.84193" lon="3.1105">
        <ele>683</ele>
        <time>2010-01-01T00:30:20Z</time>
      </trkpt>
      <trkpt lat="43.84192" lon="3.11048">
        <ele>683</ele>
        <time>2010-01-01T00:30:22Z</time>
      </trkpt>
      <trkpt lat="43.84189" lon="3.11034">
        <ele>684</ele>
        <time>2010-01-01T00:30:40Z</time>
      </trkpt>
      <trkpt lat="43.8421" lon="3.10956">
        <ele>684</ele>
        <time>2010-01-01T00:32:18Z</time>
      </trkpt>
      <trkpt lat="43.84283" lon="3.10772">
        <ele>688</ele>
        <time>2010-01-01T00:36:26Z</time>
      </trkpt>
      <trkpt lat="43.84283" lon="3.10771">
        <ele>688</ele>
        <time>2010-01-01T00:36:26Z</time>
      </trkpt>
      <trkpt lat="43.84292" lon="3.10762">
        <ele>688</ele>
        <time>2010-01-01T00:36:45Z</time>
      </trkpt>
      <trkpt lat="43.84352" lon="3.10746">
        <ele>690</ele>
        <time>2010-01-01T00:38:24Z</time>
      </trkpt>
      <trkpt lat="43.84416" lon="3.10722">
        <ele>688</ele>
        <time>2010-01-01T00:40:13Z</time>
      </trkpt>
      <trkpt lat="43.84461" lon="3.107">
        <ele>690</ele>
        <time>2010-01-01T00:41:31Z</time>
      </trkpt>
      <trkpt lat="43.84512" lon="3.10697">
        <ele>691</ele>
        <time>2010-01-01T00:42:54Z</time>
      </trkpt>
      <trkpt lat="43.84548" lon="3.1069">
        <ele>688</ele>
        <time>2010-01-01T00:43:54Z</time>
      </trkpt>
      <trkpt lat="43.84593" lon="3.10667">
        <ele>686</ele>
        <time>2010-01-01T00:45:12Z</time>
      </trkpt>
      <trkpt lat="43.84674" lon="3.10608">
        <ele>684</ele>
        <time>2010-01-01T00:47:41Z</time>
      </trkpt>
      <trkpt lat="43.84676" lon="3.10606">
        <ele>684</ele>
        <time>2010-01-01T00:47:45Z</time>
      </trkpt>
      <trkpt lat="43.84685" lon="3.10624">
        <ele>684</ele>
        <time>2010-01-01T00:48:10Z</time>
      </trkpt>
      <trkpt lat="43.84695" lon="3.10628">
        <ele>684</ele>
        <time>2010-01-01T00:48:28Z</time>
      </trkpt>
      <trkpt lat="43.8471" lon="3.10619">
        <ele>685</ele>
        <time>2010-01-01T00:48:55Z</time>
      </trkpt>
      <trkpt lat="43.84725" lon="3.10643">
        <ele>685</ele>
        <time>2010-01-01T00:49:33Z</time>
      </trkpt>
      <trkpt lat="43.84719" lon="3.1066">
        <ele>684</ele>
        <time>2010-01-01T00:49:55Z</time>
      </trkpt>
      <trkpt lat="43.84733" lon="3.1067">
        <ele>684</ele>
        <time>2010-01-01T00:50:22Z</time>
      </trkpt>
      <trkpt lat="43.84746" lon="3.10659">
        <ele>685</ele>
        <time>2010-01-01T00:50:46Z</time>
      </trkpt>
      <trkpt lat="43.84759" lon="3.10646">
        <ele>686</ele>
        <time>2010-01-01T00:51:13Z</time>
      </trkpt>
      <trkpt lat="43.84765" lon="3.10633">
        <ele>687</ele>
        <time>2010-01-01T00:51:30Z</time>
      </trkpt>
      <trkpt lat="43.84774" lon="3.10632">
        <ele>687</ele>
        <time>2010-01-01T00:51:45Z</time>
      </trkpt>
      <trkpt lat="43.84775" lon="3.10632">
        <ele>687</ele>
        <time>2010-01-01T00:51:47Z</time>
      </trkpt>
      <trkpt lat="43.84738" lon="3.1054">
        <ele>688</ele>
        <time>2010-01-01T00:53:51Z</time>
      </trkpt>
      <trkpt lat="43.84716" lon="3.10501">
        <ele>689</ele>
        <time>2010-01-01T00:54:48Z</time>
      </trkpt>
      <trkpt lat="43.84682" lon="3.10453">
        <ele>691</ele>
        <time>2010-01-01T00:56:09Z</time>
      </trkpt>
      <trkpt lat="43.84637" lon="3.10397">
        <ele>692</ele>
        <time>2010-01-01T00:57:48Z</time>
      </trkpt>
      <trkpt lat="43.84608" lon="3.10368">
        <ele>692</ele>
        <time>2010-01-01T00:58:46Z</time>
      </trkpt>
      <trkpt lat="43.84606" lon="3.10367">
        <ele>692</ele>
        <time>2010-01-01T00:58:49Z</time>
      </trkpt>
      <trkpt lat="43.846" lon="3.10354">
        <ele>692</ele>
        <time>2010-01-01T00:59:06Z</time>
      </trkpt>
      <trkpt lat="43.84569" lon="3.10321">
        <ele>690</ele>
        <time>2010-01-01T01:00:11Z</time>
      </trkpt>
      <trkpt lat="43.84564" lon="3.10304">
        <ele>689</ele>
        <time>2010-01-01T01:00:32Z</time>
      </trkpt>
      <trkpt lat="43.84577" lon="3.10268">
        <ele>688</ele>
        <time>2010-01-01T01:01:20Z</time>
      </trkpt>
      <trkpt lat="43.84574" lon="3.10255">
        <ele>687</ele>
        <time>2010-01-01T01:01:36Z</time>
      </trkpt>
      <trkpt lat="43.84554" lon="3.10224">
        <ele>681</ele>
        <time>2010-01-01T01:02:26Z</time>
      </trkpt>
      <trkpt lat="43.84541" lon="3.10194">
        <ele>676</ele>
        <time>2010-01-01T01:03:07Z</time>
      </trkpt>
      <trkpt lat="43.8453" lon="3.10157">
        <ele>670</ele>
        <time>2010-01-01T01:03:54Z</time>
      </trkpt>
      <trkpt lat="43.84504" lon="3.10098">
        <ele>660</ele>
        <time>2010-01-01T01:05:16Z</time>
      </trkpt>
      <trkpt lat="43.84477" lon="3.10055">
        <ele>653</ele>
        <time>2010-01-01T01:06:22Z</time>
      </trkpt>
      <trkpt lat="43.84464" lon="3.10042">
        <ele>650</ele>
        <time>2010-01-01T01:06:50Z</time>
      </trkpt>
      <trkpt lat="43.84424" lon="3.10009">
        <ele>647</ele>
        <time>2010-01-01T01:08:05Z</time>
      </trkpt>
      <trkpt lat="43.84423" lon="3.10001">
        <ele>647</ele>
        <time>2010-01-01T01:08:14Z</time>
      </trkpt>
      <trkpt lat="43.84424" lon="3.09997">
        <ele>646</ele>
        <time>2010-01-01T01:08:20Z</time>
      </trkpt>
      <trkpt lat="43.84427" lon="3.0999">
        <ele>645</ele>
        <time>2010-01-01T01:08:29Z</time>
      </trkpt>
      <trkpt lat="43.84437" lon="3.09986">
        <ele>644</ele>
        <time>2010-01-01T01:08:45Z</time>
      </trkpt>
      <trkpt lat="43.84504" lon="3.10013">
        <ele>650</ele>
        <time>2010-01-01T01:10:39Z</time>
      </trkpt>
      <trkpt lat="43.84538" lon="3.10031">
        <ele>651</ele>
        <time>2010-01-01T01:11:38Z</time>
      </trkpt>
      <trkpt lat="43.84564" lon="3.10052">
        <ele>654</ele>
        <time>2010-01-01T01:12:27Z</time>
      </trkpt>
      <trkpt lat="43.84564" lon="3.10052">
        <ele>654</ele>
        <time>2010-01-01T01:12:28Z</time>
      </trkpt>
      <trkpt lat="43.84576" lon="3.10047">
        <ele>653</ele>
        <time>2010-01-01T01:12:49Z</time>
      </trkpt>
      <trkpt lat="43.84597" lon="3.10029">
        <ele>652</ele>
        <time>2010-01-01T01:13:29Z</time>
      </trkpt>
      <trkpt lat="43.84615" lon="3.09998">
        <ele>651</ele>
        <time>2010-01-01T01:14:16Z</time>
      </trkpt>
      <trkpt lat="43.84632" lon="3.0995">
        <ele>650</ele>
        <time>2010-01-01T01:15:19Z</time>
      </trkpt>
      <trkpt lat="43.84629" lon="3.09934">
        <ele>646</ele>
        <time>2010-01-01T01:15:38Z</time>
      </trkpt>
      <trkpt lat="43.84607" lon="3.09906">
        <ele>635</ele>
        <time>2010-01-01T01:16:26Z</time>
      </trkpt>
      <trkpt lat="43.84602" lon="3.09875">
        <ele>635</ele>
        <time>2010-01-01T01:17:04Z</time>
      </trkpt>
      <trkpt lat="43.84604" lon="3.09848">
        <ele>637</ele>
        <time>2010-01-01T01:17:36Z</time>
      </trkpt>
      <trkpt lat="43.84604" lon="3.09845">
        <ele>637</ele>
        <time>2010-01-01T01:17:39Z</time>
      </trkpt>
      <trkpt lat="43.84598" lon="3.09838">
        <ele>635</ele>
        <time>2010-01-01T01:17:52Z</time>
      </trkpt>
      <trkpt lat="43.84565" lon="3.09834">
        <ele>624</ele>
        <time>2010-01-01T01:18:46Z</time>
      </trkpt>
      <trkpt lat="43.84554" lon="3.09818">
        <ele>622</ele>
        <time>2010-01-01T01:19:13Z</time>
      </trkpt>
      <trkpt lat="43.84526" lon="3.09752">
        <ele>616</ele>
        <time>2010-01-01T01:20:42Z</time>
      </trkpt>
      <trkpt lat="43.84507" lon="3.09714">
        <ele>605</ele>
        <time>2010-01-01T01:21:37Z</time>
      </trkpt>
      <trkpt lat="43.84505" lon="3.09689">
        <ele>604</ele>
        <time>2010-01-01T01:22:07Z</time>
      </trkpt>
      <trkpt lat="43.84545" lon="3.09535">
        <ele>607</ele>
        <time>2010-01-01T01:25:19Z</time>
      </trkpt>
      <trkpt lat="43.84556" lon="3.09459">
        <ele>601</ele>
        <time>2010-01-01T01:26:51Z</time>
      </trkpt>
      <trkpt lat="43.84559" lon="3.09409">
        <ele>596</ele>
        <time>2010-01-01T01:27:51Z</time>
      </trkpt>
      <trkpt lat="43.84567" lon="3.09374">
        <ele>597</ele>
        <time>2010-01-01T01:28:33Z</time>
      </trkpt>
      <trkpt lat="43.8456" lon="3.09351">
        <ele>597</ele>
        <time>2010-01-01T01:29:02Z</time>
      </trkpt>
      <trkpt lat="43.84553" lon="3.09358">
        <ele>596</ele>
        <time>2010-01-01T01:29:17Z</time>
      </trkpt>
      <trkpt lat="43.84553" lon="3.09358">
        <ele>596</ele>
        <time>2010-01-01T01:29:17Z</time>
      </trkpt>
      <trkpt lat="43.84545" lon="3.09372">
        <ele>595</ele>
        <time>2010-01-01T01:29:38Z</time>
      </trkpt>
      <trkpt lat="43.84488" lon="3.09569">
        <ele>590</ele>
        <time>2010-01-01T01:33:48Z</time>
      </trkpt>
      <trkpt lat="43.84439" lon="3.0968">
        <ele>584</ele>
        <time>2010-01-01T01:36:21Z</time>
      </trkpt>
      <trkpt lat="43.84439" lon="3.09681">
        <ele>584</ele>
        <time>2010-01-01T01:36:23Z</time>
      </trkpt>
      <trkpt lat="43.84408" lon="3.09737">
        <ele>578</ele>
        <time>2010-01-01T01:37:46Z</time>
      </trkpt>
      <trkpt lat="43.84312" lon="3.09821">
        <ele>577</ele>
        <time>2010-01-01T01:40:51Z</time>
      </trkpt>
      <trkpt lat="43.84197" lon="3.09965">
        <ele>579</ele>
        <time>2010-01-01T01:45:05Z</time>
      </trkpt>
      <trkpt lat="43.84148" lon="3.10124">
        <ele>573</ele>
        <time>2010-01-01T01:48:29Z</time>
      </trkpt>
      <trkpt lat="43.84147" lon="3.10128">
        <ele>573</ele>
        <time>2010-01-01T01:48:34Z</time>
      </trkpt>
      <trkpt lat="43.84134" lon="3.10151">
        <ele>575</ele>
        <time>2010-01-01T01:49:08Z</time>
      </trkpt>
      <trkpt lat="43.84085" lon="3.1035">
        <ele>564</ele>
        <time>2010-01-01T01:53:16Z</time>
      </trkpt>
      <trkpt lat="43.84061" lon="3.10423">
        <ele>561</ele>
        <time>2010-01-01T01:54:51Z</time>
      </trkpt>
      <trkpt lat="43.84042" lon="3.10459">
        <ele>563</ele>
        <time>2010-01-01T01:55:43Z</time>
      </trkpt>
      <trkpt lat="43.84037" lon="3.10486">
        <ele>564</ele>
        <time>2010-01-01T01:56:16Z</time>
      </trkpt>
      <trkpt lat="43.84038" lon="3.10488">
        <ele>564</ele>
        <time>2010-01-01T01:56:18Z</time>
      </trkpt>
      <trkpt lat="43.84048" lon="3.10503">
        <ele>563</ele>
        <time>2010-01-01T01:56:43Z</time>
      </trkpt>
      <trkpt lat="43.8405" lon="3.10518">
        <ele>564</ele>
        <time>2010-01-01T01:57:01Z</time>
      </trkpt>
      <trkpt lat="43.83932" lon="3.10748">
        <ele>558</ele>
        <time>2010-01-01T02:02:34Z</time>
      </trkpt>
      <trkpt lat="43.83889" lon="3.10823">
        <ele>556</ele>
        <time>2010-01-01T02:04:26Z</time>
      </trkpt>
      <trkpt lat="43.83852" lon="3.10881">
        <ele>555</ele>
        <time>2010-01-01T02:05:57Z</time>
      </trkpt>
      <trkpt lat="43.83851" lon="3.10882">
        <ele>555</ele>
        <time>2010-01-01T02:06:00Z</time>
      </trkpt>
      <trkpt lat="43.83821" lon="3.10926">
        <ele>554</ele>
        <time>2010-01-01T02:07:11Z</time>
      </trkpt>
      <trkpt lat="43.83772" lon="3.11081">
        <ele>561</ele>
        <time>2010-01-01T02:10:30Z</time>
      </trkpt>
      <trkpt lat="43.83773" lon="3.11137">
        <ele>558</ele>
        <time>2010-01-01T02:11:37Z</time>
      </trkpt>
      <trkpt lat="43.8373" lon="3.11301">
        <ele>551</ele>
        <time>2010-01-01T02:15:03Z</time>
      </trkpt>
      <trkpt lat="43.83684" lon="3.11474">
        <ele>549</ele>
        <time>2010-01-01T02:18:40Z</time>
      </trkpt>
      <trkpt lat="43.8367" lon="3.11549">
        <ele>544</ele>
        <time>2010-01-01T02:20:11Z</time>
      </trkpt>
      <trkpt lat="43.83653" lon="3.11697">
        <ele>538</ele>
        <time>2010-01-01T02:23:07Z</time>
      </trkpt>
      <trkpt lat="43.83657" lon="3.11737">
        <ele>535</ele>
        <time>2010-01-01T02:23:55Z</time>
      </trkpt>
      <trkpt lat="43.83657" lon="3.11796">
        <ele>535</ele>
        <time>2010-01-01T02:25:05Z</time>
      </trkpt>
    </trkseg>
  </trk>
</gpx>